sensor_id;sensor_type;location;lat;lon;timestamp;temperature;humidity
12053;DHT22;6087;48.982;12.064;2023-06-04T00:02:25;16.90;1.00
12053;DHT22;6087;48.982;12.064;2023-06-04T00:04:52;16.90;1.00
12053;DHT22;6087;48.982;12.064;2023-06-04T00:07:19;16.80;1.00
12053;DHT22;6087;48.982;12.064;2023-06-04T00:09:47;16.80;1.00
12053;DHT22;6087;48.982;12.064;2023-06-04T00:12:14;16.80;1.00
12053;DHT22;6087;48.982;12.064;2023-06-04T00:14:42;16.70;1.00
12053;DHT22;6087;48.982;12.064;2023-06-04T00:17:10;16.60;1.00
12053;DHT22;6087;48.982;12.064;2023-06-04T00:19:38;16.50;1.00
12053;DHT22;6087;48.982;12.064;2023-06-04T00:22:06;16.40;1.00
12053;DHT22;6087;48.982;12.064;2023-06-04T00:24:33;16.40;1.00
12053;DHT22;6087;48.982;12.064;2023-06-04T00:27:02;16.40;1.00
12053;DHT22;6087;48.982;12.064;2023-06-04T00:29:29;16.40;1.00
12053;DHT22;6087;48.982;12.064;2023-06-04T00:31:55;16.40;1.00
12053;DHT22;6087;48.982;12.064;2023-06-04T00:34:22;16.30;1.00
12053;DHT22;6087;48.982;12.064;2023-06-04T00:36:49;16.30;1.00
12053;DHT22;6087;48.982;12.064;2023-06-04T00:39:16;16.30;1.00
12053;DHT22;6087;48.982;12.064;2023-06-04T00:41:43;16.30;1.00
12053;DHT22;6087;48.982;12.064;2023-06-04T00:44:11;16.30;1.00
12053;DHT22;6087;48.982;12.064;2023-06-04T00:46:38;16.30;1.00
12053;DHT22;6087;48.982;12.064;2023-06-04T00:49:05;16.20;1.00
12053;DHT22;6087;48.982;12.064;2023-06-04T00:51:32;16.10;1.00
12053;DHT22;6087;48.982;12.064;2023-06-04T00:53:59;16.00;1.00
12053;DHT22;6087;48.982;12.064;2023-06-04T00:56:34;16.00;1.00
12053;DHT22;6087;48.982;12.064;2023-06-04T00:59:01;15.90;1.00
12053;DHT22;6087;48.982;12.064;2023-06-04T01:01:33;15.80;1.00
12053;DHT22;6087;48.982;12.064;2023-06-04T01:04:04;15.80;1.00
12053;DHT22;6087;48.982;12.064;2023-06-04T01:06:38;15.80;1.00
12053;DHT22;6087;48.982;12.064;2023-06-04T01:09:05;15.70;1.00
12053;DHT22;6087;48.982;12.064;2023-06-04T01:11:33;15.60;1.00
12053;DHT22;6087;48.982;12.064;2023-06-04T01:14:01;15.50;1.00
12053;DHT22;6087;48.982;12.064;2023-06-04T01:16:32;15.40;1.00
12053;DHT22;6087;48.982;12.064;2023-06-04T01:19:02;15.40;1.00
12053;DHT22;6087;48.982;12.064;2023-06-04T01:21:35;15.40;1.00
12053;DHT22;6087;48.982;12.064;2023-06-04T01:24:05;15.30;1.00
12053;DHT22;6087;48.982;12.064;2023-06-04T01:26:34;15.30;1.00
12053;DHT22;6087;48.982;12.064;2023-06-04T01:29:03;15.10;1.00
12053;DHT22;6087;48.982;12.064;2023-06-04T01:31:33;15.10;1.00
12053;DHT22;6087;48.982;12.064;2023-06-04T01:34:00;15.00;1.00
12053;DHT22;6087;48.982;12.064;2023-06-04T01:36:28;14.90;1.00
12053;DHT22;6087;48.982;12.064;2023-06-04T01:38:55;14.90;1.00
12053;DHT22;6087;48.982;12.064;2023-06-04T01:41:22;14.90;1.00
12053;DHT22;6087;48.982;12.064;2023-06-04T01:43:49;14.90;1.00
12053;DHT22;6087;48.982;12.064;2023-06-04T01:46:16;14.90;1.00
12053;DHT22;6087;48.982;12.064;2023-06-04T01:48:44;14.80;1.00
12053;DHT22;6087;48.982;12.064;2023-06-04T01:51:14;14.70;1.00
12053;DHT22;6087;48.982;12.064;2023-06-04T01:53:41;14.70;1.00
12053;DHT22;6087;48.982;12.064;2023-06-04T01:56:08;14.60;1.00
12053;DHT22;6087;48.982;12.064;2023-06-04T01:58:35;14.50;1.00
12053;DHT22;6087;48.982;12.064;2023-06-04T02:01:02;14.50;1.00
12053;DHT22;6087;48.982;12.064;2023-06-04T02:03:30;14.50;1.00
12053;DHT22;6087;48.982;12.064;2023-06-04T02:06:04;14.20;1.00
12053;DHT22;6087;48.982;12.064;2023-06-04T02:08:33;14.10;1.00
12053;DHT22;6087;48.982;12.064;2023-06-04T02:11:01;14.20;1.00
12053;DHT22;6087;48.982;12.064;2023-06-04T02:13:27;14.10;1.00
12053;DHT22;6087;48.982;12.064;2023-06-04T02:15:54;14.20;1.00
12053;DHT22;6087;48.982;12.064;2023-06-04T02:18:21;14.10;1.00
12053;DHT22;6087;48.982;12.064;2023-06-04T02:20:49;14.20;1.00
12053;DHT22;6087;48.982;12.064;2023-06-04T02:23:19;14.20;1.00
12053;DHT22;6087;48.982;12.064;2023-06-04T02:25:46;14.20;1.00
12053;DHT22;6087;48.982;12.064;2023-06-04T02:28:15;14.10;1.00
12053;DHT22;6087;48.982;12.064;2023-06-04T02:30:43;14.10;1.00
12053;DHT22;6087;48.982;12.064;2023-06-04T02:33:11;14.00;1.00
12053;DHT22;6087;48.982;12.064;2023-06-04T02:35:38;13.90;1.00
12053;DHT22;6087;48.982;12.064;2023-06-04T02:38:06;13.90;1.00
12053;DHT22;6087;48.982;12.064;2023-06-04T02:40:34;13.90;1.00
12053;DHT22;6087;48.982;12.064;2023-06-04T02:43:01;13.80;1.00
12053;DHT22;6087;48.982;12.064;2023-06-04T02:45:28;13.80;1.00
12053;DHT22;6087;48.982;12.064;2023-06-04T02:47:56;13.70;1.00
12053;DHT22;6087;48.982;12.064;2023-06-04T02:50:23;13.60;1.00
12053;DHT22;6087;48.982;12.064;2023-06-04T02:52:50;13.60;1.00
12053;DHT22;6087;48.982;12.064;2023-06-04T02:55:17;13.60;1.00
12053;DHT22;6087;48.982;12.064;2023-06-04T02:57:48;13.60;1.00
12053;DHT22;6087;48.982;12.064;2023-06-04T03:00:17;13.60;1.00
12053;DHT22;6087;48.982;12.064;2023-06-04T03:02:45;13.60;1.00
12053;DHT22;6087;48.982;12.064;2023-06-04T03:05:14;13.70;1.00
12053;DHT22;6087;48.982;12.064;2023-06-04T03:07:43;13.70;1.00
12053;DHT22;6087;48.982;12.064;2023-06-04T03:10:12;13.70;1.00
12053;DHT22;6087;48.982;12.064;2023-06-04T03:12:39;13.70;1.00
12053;DHT22;6087;48.982;12.064;2023-06-04T03:15:08;13.70;1.00
12053;DHT22;6087;48.982;12.064;2023-06-04T03:17:36;13.70;1.00
12053;DHT22;6087;48.982;12.064;2023-06-04T03:20:04;13.70;1.00
12053;DHT22;6087;48.982;12.064;2023-06-04T03:22:32;13.70;1.00
12053;DHT22;6087;48.982;12.064;2023-06-04T03:25:01;13.60;1.00
12053;DHT22;6087;48.982;12.064;2023-06-04T03:27:28;13.50;1.00
12053;DHT22;6087;48.982;12.064;2023-06-04T03:30:01;13.50;1.00
12053;DHT22;6087;48.982;12.064;2023-06-04T03:32:30;13.40;1.00
12053;DHT22;6087;48.982;12.064;2023-06-04T03:34:56;13.50;1.00
12053;DHT22;6087;48.982;12.064;2023-06-04T03:37:29;13.50;1.00
12053;DHT22;6087;48.982;12.064;2023-06-04T03:40:00;13.40;1.00
12053;DHT22;6087;48.982;12.064;2023-06-04T03:42:34;13.40;1.00
12053;DHT22;6087;48.982;12.064;2023-06-04T03:45:01;13.30;1.00
12053;DHT22;6087;48.982;12.064;2023-06-04T03:47:29;13.30;1.00
12053;DHT22;6087;48.982;12.064;2023-06-04T03:49:56;13.30;1.00
12053;DHT22;6087;48.982;12.064;2023-06-04T03:52:23;13.30;1.00
12053;DHT22;6087;48.982;12.064;2023-06-04T03:54:50;13.30;1.00
12053;DHT22;6087;48.982;12.064;2023-06-04T03:57:17;13.30;1.00
12053;DHT22;6087;48.982;12.064;2023-06-04T03:59:44;13.40;1.00
12053;DHT22;6087;48.982;12.064;2023-06-04T04:02:16;13.40;1.00
12053;DHT22;6087;48.982;12.064;2023-06-04T04:04:45;13.20;1.00
12053;DHT22;6087;48.982;12.064;2023-06-04T04:07:15;13.30;1.00
12053;DHT22;6087;48.982;12.064;2023-06-04T04:09:41;13.20;1.00
12053;DHT22;6087;48.982;12.064;2023-06-04T04:12:08;13.20;1.00
12053;DHT22;6087;48.982;12.064;2023-06-04T04:14:35;13.20;1.00
12053;DHT22;6087;48.982;12.064;2023-06-04T04:17:02;13.20;1.00
12053;DHT22;6087;48.982;12.064;2023-06-04T04:19:32;13.20;1.00
12053;DHT22;6087;48.982;12.064;2023-06-04T04:22:01;13.30;1.00
12053;DHT22;6087;48.982;12.064;2023-06-04T04:24:28;13.40;1.00
12053;DHT22;6087;48.982;12.064;2023-06-04T04:26:55;13.30;1.00
12053;DHT22;6087;48.982;12.064;2023-06-04T04:29:31;13.20;1.00
12053;DHT22;6087;48.982;12.064;2023-06-04T04:31:58;13.30;1.00
12053;DHT22;6087;48.982;12.064;2023-06-04T04:34:26;13.30;1.00
12053;DHT22;6087;48.982;12.064;2023-06-04T04:36:54;13.40;1.00
12053;DHT22;6087;48.982;12.064;2023-06-04T04:39:24;13.40;1.00
12053;DHT22;6087;48.982;12.064;2023-06-04T04:41:51;13.50;1.00
12053;DHT22;6087;48.982;12.064;2023-06-04T04:44:18;13.40;1.00
12053;DHT22;6087;48.982;12.064;2023-06-04T04:46:45;13.40;1.00
12053;DHT22;6087;48.982;12.064;2023-06-04T04:49:12;13.50;1.00
12053;DHT22;6087;48.982;12.064;2023-06-04T04:51:39;13.50;1.00
12053;DHT22;6087;48.982;12.064;2023-06-04T04:54:06;13.50;1.00
12053;DHT22;6087;48.982;12.064;2023-06-04T04:56:34;13.50;1.00
12053;DHT22;6087;48.982;12.064;2023-06-04T04:59:01;13.50;1.00
12053;DHT22;6087;48.982;12.064;2023-06-04T05:01:28;13.50;1.00
12053;DHT22;6087;48.982;12.064;2023-06-04T05:03:55;13.60;1.00
12053;DHT22;6087;48.982;12.064;2023-06-04T05:06:22;13.60;1.00
12053;DHT22;6087;48.982;12.064;2023-06-04T05:08:49;13.60;1.00
12053;DHT22;6087;48.982;12.064;2023-06-04T05:11:16;13.70;1.00
12053;DHT22;6087;48.982;12.064;2023-06-04T05:13:45;13.70;1.00
12053;DHT22;6087;48.982;12.064;2023-06-04T05:16:12;13.80;1.00
12053;DHT22;6087;48.982;12.064;2023-06-04T05:18:45;13.80;1.00
12053;DHT22;6087;48.982;12.064;2023-06-04T05:21:12;13.90;1.00
12053;DHT22;6087;48.982;12.064;2023-06-04T05:23:39;13.90;1.00
12053;DHT22;6087;48.982;12.064;2023-06-04T05:26:05;13.90;1.00
12053;DHT22;6087;48.982;12.064;2023-06-04T05:28:35;14.00;1.00
12053;DHT22;6087;48.982;12.064;2023-06-04T05:31:05;14.10;1.00
12053;DHT22;6087;48.982;12.064;2023-06-04T05:33:34;14.10;1.00
12053;DHT22;6087;48.982;12.064;2023-06-04T05:36:01;14.20;1.00
12053;DHT22;6087;48.982;12.064;2023-06-04T05:38:28;14.30;1.00
12053;DHT22;6087;48.982;12.064;2023-06-04T05:40:56;14.30;1.00
12053;DHT22;6087;48.982;12.064;2023-06-04T05:43:23;14.40;1.00
12053;DHT22;6087;48.982;12.064;2023-06-04T05:45:50;14.50;1.00
12053;DHT22;6087;48.982;12.064;2023-06-04T05:48:19;14.50;1.00
12053;DHT22;6087;48.982;12.064;2023-06-04T05:50:46;14.60;1.00
12053;DHT22;6087;48.982;12.064;2023-06-04T05:53:13;14.60;1.00
12053;DHT22;6087;48.982;12.064;2023-06-04T05:55:40;14.70;1.00
12053;DHT22;6087;48.982;12.064;2023-06-04T05:58:07;14.70;1.00
12053;DHT22;6087;48.982;12.064;2023-06-04T06:00:34;14.80;1.00
12053;DHT22;6087;48.982;12.064;2023-06-04T06:03:01;14.80;1.00
12053;DHT22;6087;48.982;12.064;2023-06-04T06:05:30;14.90;1.00
12053;DHT22;6087;48.982;12.064;2023-06-04T06:07:57;15.00;1.00
12053;DHT22;6087;48.982;12.064;2023-06-04T06:10:24;15.00;1.00
12053;DHT22;6087;48.982;12.064;2023-06-04T06:12:51;15.10;1.00
12053;DHT22;6087;48.982;12.064;2023-06-04T06:15:18;15.10;1.00
12053;DHT22;6087;48.982;12.064;2023-06-04T06:17:45;15.10;1.00
12053;DHT22;6087;48.982;12.064;2023-06-04T06:20:12;15.20;1.00
12053;DHT22;6087;48.982;12.064;2023-06-04T06:22:44;15.20;1.00
12053;DHT22;6087;48.982;12.064;2023-06-04T06:25:11;15.30;1.00
12053;DHT22;6087;48.982;12.064;2023-06-04T06:27:39;15.40;1.00
12053;DHT22;6087;48.982;12.064;2023-06-04T06:30:07;15.40;1.00
12053;DHT22;6087;48.982;12.064;2023-06-04T06:32:34;15.50;1.00
12053;DHT22;6087;48.982;12.064;2023-06-04T06:35:01;15.50;1.00
12053;DHT22;6087;48.982;12.064;2023-06-04T06:37:31;15.60;1.00
12053;DHT22;6087;48.982;12.064;2023-06-04T06:39:59;15.60;1.00
12053;DHT22;6087;48.982;12.064;2023-06-04T06:42:34;15.70;1.00
12053;DHT22;6087;48.982;12.064;2023-06-04T06:45:01;15.80;1.00
12053;DHT22;6087;48.982;12.064;2023-06-04T06:47:28;15.80;1.00
12053;DHT22;6087;48.982;12.064;2023-06-04T06:49:55;15.80;1.00
12053;DHT22;6087;48.982;12.064;2023-06-04T06:52:31;15.80;1.00
12053;DHT22;6087;48.982;12.064;2023-06-04T06:54:59;15.90;1.00
12053;DHT22;6087;48.982;12.064;2023-06-04T06:57:26;15.90;1.00
12053;DHT22;6087;48.982;12.064;2023-06-04T06:59:53;15.90;1.00
12053;DHT22;6087;48.982;12.064;2023-06-04T07:02:20;15.90;1.00
12053;DHT22;6087;48.982;12.064;2023-06-04T07:04:47;16.00;1.00
12053;DHT22;6087;48.982;12.064;2023-06-04T07:07:14;16.00;1.00
12053;DHT22;6087;48.982;12.064;2023-06-04T07:09:42;16.10;1.00
12053;DHT22;6087;48.982;12.064;2023-06-04T07:12:10;16.10;1.00
12053;DHT22;6087;48.982;12.064;2023-06-04T07:14:37;16.10;1.00
12053;DHT22;6087;48.982;12.064;2023-06-04T07:17:04;16.10;1.00
12053;DHT22;6087;48.982;12.064;2023-06-04T07:19:31;16.20;1.00
12053;DHT22;6087;48.982;12.064;2023-06-04T07:21:58;16.20;1.00
12053;DHT22;6087;48.982;12.064;2023-06-04T07:24:25;16.30;1.00
12053;DHT22;6087;48.982;12.064;2023-06-04T07:26:54;16.40;1.00
12053;DHT22;6087;48.982;12.064;2023-06-04T07:29:23;16.40;1.00
12053;DHT22;6087;48.982;12.064;2023-06-04T07:31:50;16.40;1.00
12053;DHT22;6087;48.982;12.064;2023-06-04T07:34:17;16.50;1.00
12053;DHT22;6087;48.982;12.064;2023-06-04T07:36:43;16.50;1.00
12053;DHT22;6087;48.982;12.064;2023-06-04T07:39:10;16.50;1.00
12053;DHT22;6087;48.982;12.064;2023-06-04T07:41:37;16.60;1.00
12053;DHT22;6087;48.982;12.064;2023-06-04T07:44:07;16.70;1.00
12053;DHT22;6087;48.982;12.064;2023-06-04T07:46:35;16.70;1.00
12053;DHT22;6087;48.982;12.064;2023-06-04T07:49:02;16.80;1.00
12053;DHT22;6087;48.982;12.064;2023-06-04T07:51:34;16.80;1.00
12053;DHT22;6087;48.982;12.064;2023-06-04T07:54:02;16.90;1.00
12053;DHT22;6087;48.982;12.064;2023-06-04T07:56:29;16.90;1.00
12053;DHT22;6087;48.982;12.064;2023-06-04T07:58:56;17.00;1.00
12053;DHT22;6087;48.982;12.064;2023-06-04T08:01:23;17.00;1.00
12053;DHT22;6087;48.982;12.064;2023-06-04T08:03:52;17.10;1.00
12053;DHT22;6087;48.982;12.064;2023-06-04T08:06:18;17.10;1.00
12053;DHT22;6087;48.982;12.064;2023-06-04T08:08:46;17.20;1.00
12053;DHT22;6087;48.982;12.064;2023-06-04T08:11:18;17.20;1.00
12053;DHT22;6087;48.982;12.064;2023-06-04T08:13:48;17.20;1.00
12053;DHT22;6087;48.982;12.064;2023-06-04T08:16:15;17.30;1.00
12053;DHT22;6087;48.982;12.064;2023-06-04T08:18:42;17.40;1.00
12053;DHT22;6087;48.982;12.064;2023-06-04T08:21:11;17.40;1.00
12053;DHT22;6087;48.982;12.064;2023-06-04T08:23:38;17.40;1.00
12053;DHT22;6087;48.982;12.064;2023-06-04T08:26:06;17.40;1.00
12053;DHT22;6087;48.982;12.064;2023-06-04T08:28:33;17.50;1.00
12053;DHT22;6087;48.982;12.064;2023-06-04T08:31:00;17.50;1.00
12053;DHT22;6087;48.982;12.064;2023-06-04T08:33:27;17.60;1.00
12053;DHT22;6087;48.982;12.064;2023-06-04T08:35:54;17.60;1.00
12053;DHT22;6087;48.982;12.064;2023-06-04T08:38:22;17.60;1.00
12053;DHT22;6087;48.982;12.064;2023-06-04T08:40:52;17.60;1.00
12053;DHT22;6087;48.982;12.064;2023-06-04T08:43:19;17.70;1.00
12053;DHT22;6087;48.982;12.064;2023-06-04T08:45:59;17.80;1.00
12053;DHT22;6087;48.982;12.064;2023-06-04T08:48:28;17.80;1.00
12053;DHT22;6087;48.982;12.064;2023-06-04T08:50:57;17.80;1.00
12053;DHT22;6087;48.982;12.064;2023-06-04T08:53:27;17.80;1.00
12053;DHT22;6087;48.982;12.064;2023-06-04T08:55:54;17.90;1.00
12053;DHT22;6087;48.982;12.064;2023-06-04T08:58:22;17.90;1.00
12053;DHT22;6087;48.982;12.064;2023-06-04T09:00:49;17.90;1.00
12053;DHT22;6087;48.982;12.064;2023-06-04T09:03:17;18.00;1.00
12053;DHT22;6087;48.982;12.064;2023-06-04T09:05:47;18.00;1.00
12053;DHT22;6087;48.982;12.064;2023-06-04T09:08:17;18.10;1.00
12053;DHT22;6087;48.982;12.064;2023-06-04T09:10:46;18.10;1.00
12053;DHT22;6087;48.982;12.064;2023-06-04T09:13:17;18.20;1.00
12053;DHT22;6087;48.982;12.064;2023-06-04T09:15:45;18.20;1.00
12053;DHT22;6087;48.982;12.064;2023-06-04T09:18:12;18.30;1.00
12053;DHT22;6087;48.982;12.064;2023-06-04T09:20:39;18.40;1.00
12053;DHT22;6087;48.982;12.064;2023-06-04T09:23:12;18.40;1.00
12053;DHT22;6087;48.982;12.064;2023-06-04T09:25:44;18.40;1.00
12053;DHT22;6087;48.982;12.064;2023-06-04T09:28:12;18.50;1.00
12053;DHT22;6087;48.982;12.064;2023-06-04T09:30:39;18.50;1.00
12053;DHT22;6087;48.982;12.064;2023-06-04T09:33:06;18.50;1.00
12053;DHT22;6087;48.982;12.064;2023-06-04T09:35:33;18.60;1.00
12053;DHT22;6087;48.982;12.064;2023-06-04T09:38:00;18.60;1.00
12053;DHT22;6087;48.982;12.064;2023-06-04T09:40:35;18.70;1.00
12053;DHT22;6087;48.982;12.064;2023-06-04T09:43:02;18.70;1.00
12053;DHT22;6087;48.982;12.064;2023-06-04T09:45:32;18.70;1.00
12053;DHT22;6087;48.982;12.064;2023-06-04T09:48:00;18.70;1.00
12053;DHT22;6087;48.982;12.064;2023-06-04T09:50:29;18.80;1.00
12053;DHT22;6087;48.982;12.064;2023-06-04T09:52:56;18.80;1.00
12053;DHT22;6087;48.982;12.064;2023-06-04T09:55:23;18.90;1.00
12053;DHT22;6087;48.982;12.064;2023-06-04T09:57:51;18.90;1.00
12053;DHT22;6087;48.982;12.064;2023-06-04T10:00:19;18.90;1.00
12053;DHT22;6087;48.982;12.064;2023-06-04T10:02:51;19.00;1.00
12053;DHT22;6087;48.982;12.064;2023-06-04T10:05:20;19.00;1.00
12053;DHT22;6087;48.982;12.064;2023-06-04T10:07:51;19.10;1.00
12053;DHT22;6087;48.982;12.064;2023-06-04T10:10:20;19.10;1.00
12053;DHT22;6087;48.982;12.064;2023-06-04T10:12:50;19.20;1.00
12053;DHT22;6087;48.982;12.064;2023-06-04T10:15:17;19.20;1.00
12053;DHT22;6087;48.982;12.064;2023-06-04T10:17:48;19.20;1.00
12053;DHT22;6087;48.982;12.064;2023-06-04T10:20:17;19.20;1.00
12053;DHT22;6087;48.982;12.064;2023-06-04T10:22:49;19.30;1.00
12053;DHT22;6087;48.982;12.064;2023-06-04T10:25:17;19.50;1.00
12053;DHT22;6087;48.982;12.064;2023-06-04T10:27:45;19.50;1.00
12053;DHT22;6087;48.982;12.064;2023-06-04T10:30:13;19.70;1.00
12053;DHT22;6087;48.982;12.064;2023-06-04T10:32:40;19.70;1.00
12053;DHT22;6087;48.982;12.064;2023-06-04T10:35:09;19.70;1.00
12053;DHT22;6087;48.982;12.064;2023-06-04T10:37:37;19.70;1.00
12053;DHT22;6087;48.982;12.064;2023-06-04T10:40:05;19.80;1.00
12053;DHT22;6087;48.982;12.064;2023-06-04T10:42:38;19.80;1.00
12053;DHT22;6087;48.982;12.064;2023-06-04T10:45:08;19.90;1.00
12053;DHT22;6087;48.982;12.064;2023-06-04T10:47:35;20.00;1.00
12053;DHT22;6087;48.982;12.064;2023-06-04T10:50:10;20.10;1.00
12053;DHT22;6087;48.982;12.064;2023-06-04T10:52:37;20.10;1.00
12053;DHT22;6087;48.982;12.064;2023-06-04T10:55:06;20.20;1.00
12053;DHT22;6087;48.982;12.064;2023-06-04T10:57:34;20.20;1.00
12053;DHT22;6087;48.982;12.064;2023-06-04T11:00:01;20.30;1.00
12053;DHT22;6087;48.982;12.064;2023-06-04T11:02:29;20.30;1.00
12053;DHT22;6087;48.982;12.064;2023-06-04T11:05:00;20.40;1.00
12053;DHT22;6087;48.982;12.064;2023-06-04T11:07:42;20.40;1.00
12053;DHT22;6087;48.982;12.064;2023-06-04T11:10:10;20.50;1.00
12053;DHT22;6087;48.982;12.064;2023-06-04T11:12:44;20.60;1.00
12053;DHT22;6087;48.982;12.064;2023-06-04T11:15:12;20.70;1.00
12053;DHT22;6087;48.982;12.064;2023-06-04T11:17:49;20.70;1.00
12053;DHT22;6087;48.982;12.064;2023-06-04T11:20:16;20.80;1.00
12053;DHT22;6087;48.982;12.064;2023-06-04T11:22:51;20.90;1.00
12053;DHT22;6087;48.982;12.064;2023-06-04T11:25:19;21.00;1.00
12053;DHT22;6087;48.982;12.064;2023-06-04T11:27:47;21.00;1.00
12053;DHT22;6087;48.982;12.064;2023-06-04T11:30:15;21.10;1.00
12053;DHT22;6087;48.982;12.064;2023-06-04T11:32:42;21.20;1.00
12053;DHT22;6087;48.982;12.064;2023-06-04T11:35:10;21.30;1.00
12053;DHT22;6087;48.982;12.064;2023-06-04T11:37:38;21.40;1.00
12053;DHT22;6087;48.982;12.064;2023-06-04T11:40:16;21.50;1.00
12053;DHT22;6087;48.982;12.064;2023-06-04T11:42:44;21.60;1.00
12053;DHT22;6087;48.982;12.064;2023-06-04T11:45:19;21.70;1.00
12053;DHT22;6087;48.982;12.064;2023-06-04T11:47:47;21.80;1.00
12053;DHT22;6087;48.982;12.064;2023-06-04T11:50:14;21.90;1.00
12053;DHT22;6087;48.982;12.064;2023-06-04T11:52:42;22.00;1.00
12053;DHT22;6087;48.982;12.064;2023-06-04T11:55:10;22.20;1.00
12053;DHT22;6087;48.982;12.064;2023-06-04T11:57:41;22.30;1.00
12053;DHT22;6087;48.982;12.064;2023-06-04T12:00:09;22.40;1.00
12053;DHT22;6087;48.982;12.064;2023-06-04T12:02:36;22.50;1.00
12053;DHT22;6087;48.982;12.064;2023-06-04T12:05:13;22.50;1.00
12053;DHT22;6087;48.982;12.064;2023-06-04T12:07:40;22.70;1.00
12053;DHT22;6087;48.982;12.064;2023-06-04T12:10:07;22.70;1.00
12053;DHT22;6087;48.982;12.064;2023-06-04T12:12:34;22.70;1.00
12053;DHT22;6087;48.982;12.064;2023-06-04T12:15:03;22.80;1.00
12053;DHT22;6087;48.982;12.064;2023-06-04T12:17:31;22.80;1.00
12053;DHT22;6087;48.982;12.064;2023-06-04T12:19:58;22.80;1.00
12053;DHT22;6087;48.982;12.064;2023-06-04T12:22:25;22.90;1.00
12053;DHT22;6087;48.982;12.064;2023-06-04T12:24:54;22.90;1.00
12053;DHT22;6087;48.982;12.064;2023-06-04T12:27:22;22.90;1.00
12053;DHT22;6087;48.982;12.064;2023-06-04T12:29:57;23.00;1.00
12053;DHT22;6087;48.982;12.064;2023-06-04T12:32:26;23.00;1.00
12053;DHT22;6087;48.982;12.064;2023-06-04T12:34:53;23.10;1.00
12053;DHT22;6087;48.982;12.064;2023-06-04T12:37:20;23.10;1.00
12053;DHT22;6087;48.982;12.064;2023-06-04T12:39:47;23.10;1.00
12053;DHT22;6087;48.982;12.064;2023-06-04T12:42:14;23.20;1.00
12053;DHT22;6087;48.982;12.064;2023-06-04T12:44:41;23.30;1.00
12053;DHT22;6087;48.982;12.064;2023-06-04T12:47:08;23.40;1.00
12053;DHT22;6087;48.982;12.064;2023-06-04T12:49:37;23.40;1.00
12053;DHT22;6087;48.982;12.064;2023-06-04T12:52:05;23.40;1.00
12053;DHT22;6087;48.982;12.064;2023-06-04T12:54:32;23.40;1.00
12053;DHT22;6087;48.982;12.064;2023-06-04T12:56:59;23.30;1.00
12053;DHT22;6087;48.982;12.064;2023-06-04T12:59:27;23.40;1.00
12053;DHT22;6087;48.982;12.064;2023-06-04T13:01:54;23.40;1.00
12053;DHT22;6087;48.982;12.064;2023-06-04T13:04:21;23.40;1.00
12053;DHT22;6087;48.982;12.064;2023-06-04T13:06:50;23.40;1.00
12053;DHT22;6087;48.982;12.064;2023-06-04T13:09:20;23.40;1.00
12053;DHT22;6087;48.982;12.064;2023-06-04T13:11:48;23.50;1.00
12053;DHT22;6087;48.982;12.064;2023-06-04T13:14:15;23.50;1.00
12053;DHT22;6087;48.982;12.064;2023-06-04T13:16:42;23.50;1.00
12053;DHT22;6087;48.982;12.064;2023-06-04T13:19:11;23.50;1.00
12053;DHT22;6087;48.982;12.064;2023-06-04T13:21:38;23.60;1.00
12053;DHT22;6087;48.982;12.064;2023-06-04T13:24:06;23.60;1.00
12053;DHT22;6087;48.982;12.064;2023-06-04T13:26:34;23.60;1.00
12053;DHT22;6087;48.982;12.064;2023-06-04T13:29:01;23.60;1.00
12053;DHT22;6087;48.982;12.064;2023-06-04T13:31:28;23.60;1.00
12053;DHT22;6087;48.982;12.064;2023-06-04T13:33:55;23.60;1.00
12053;DHT22;6087;48.982;12.064;2023-06-04T13:36:22;23.60;1.00
12053;DHT22;6087;48.982;12.064;2023-06-04T13:38:49;23.60;1.00
12053;DHT22;6087;48.982;12.064;2023-06-04T13:41:19;23.80;1.00
12053;DHT22;6087;48.982;12.064;2023-06-04T13:43:46;23.80;1.00
12053;DHT22;6087;48.982;12.064;2023-06-04T13:46:13;23.90;1.00
12053;DHT22;6087;48.982;12.064;2023-06-04T13:48:41;23.90;1.00
12053;DHT22;6087;48.982;12.064;2023-06-04T13:51:08;23.80;1.00
12053;DHT22;6087;48.982;12.064;2023-06-04T13:53:37;23.90;1.00
12053;DHT22;6087;48.982;12.064;2023-06-04T13:56:04;23.90;1.00
12053;DHT22;6087;48.982;12.064;2023-06-04T13:58:32;23.90;1.00
12053;DHT22;6087;48.982;12.064;2023-06-04T14:00:59;23.90;1.00
12053;DHT22;6087;48.982;12.064;2023-06-04T14:03:26;23.90;1.00
12053;DHT22;6087;48.982;12.064;2023-06-04T14:05:53;23.90;1.00
12053;DHT22;6087;48.982;12.064;2023-06-04T14:08:20;23.90;1.00
12053;DHT22;6087;48.982;12.064;2023-06-04T14:10:47;24.00;1.00
12053;DHT22;6087;48.982;12.064;2023-06-04T14:13:14;24.00;1.00
12053;DHT22;6087;48.982;12.064;2023-06-04T14:15:45;24.00;1.00
12053;DHT22;6087;48.982;12.064;2023-06-04T14:18:12;24.00;1.00
12053;DHT22;6087;48.982;12.064;2023-06-04T14:20:39;24.00;1.00
12053;DHT22;6087;48.982;12.064;2023-06-04T14:23:06;24.00;1.00
12053;DHT22;6087;48.982;12.064;2023-06-04T14:25:33;23.90;1.00
12053;DHT22;6087;48.982;12.064;2023-06-04T14:28:04;23.90;1.00
12053;DHT22;6087;48.982;12.064;2023-06-04T14:30:40;23.80;1.00
12053;DHT22;6087;48.982;12.064;2023-06-04T14:33:09;23.70;1.00
12053;DHT22;6087;48.982;12.064;2023-06-04T14:35:36;23.70;1.00
12053;DHT22;6087;48.982;12.064;2023-06-04T14:38:04;23.70;1.00
12053;DHT22;6087;48.982;12.064;2023-06-04T14:40:33;23.70;1.00
12053;DHT22;6087;48.982;12.064;2023-06-04T14:43:03;23.80;1.00
12053;DHT22;6087;48.982;12.064;2023-06-04T14:45:34;23.70;1.00
12053;DHT22;6087;48.982;12.064;2023-06-04T14:48:03;23.80;1.00
12053;DHT22;6087;48.982;12.064;2023-06-04T14:50:32;23.70;1.00
12053;DHT22;6087;48.982;12.064;2023-06-04T14:52:59;23.70;1.00
12053;DHT22;6087;48.982;12.064;2023-06-04T14:55:26;23.80;1.00
12053;DHT22;6087;48.982;12.064;2023-06-04T14:57:53;23.80;1.00
12053;DHT22;6087;48.982;12.064;2023-06-04T15:00:20;23.70;1.00
12053;DHT22;6087;48.982;12.064;2023-06-04T15:02:47;23.70;1.00
12053;DHT22;6087;48.982;12.064;2023-06-04T15:05:14;23.70;1.00
12053;DHT22;6087;48.982;12.064;2023-06-04T15:07:42;23.70;1.00
12053;DHT22;6087;48.982;12.064;2023-06-04T15:10:09;23.70;1.00
12053;DHT22;6087;48.982;12.064;2023-06-04T15:12:36;23.70;1.00
12053;DHT22;6087;48.982;12.064;2023-06-04T15:15:06;23.60;1.00
12053;DHT22;6087;48.982;12.064;2023-06-04T15:17:33;23.60;1.00
12053;DHT22;6087;48.982;12.064;2023-06-04T15:20:00;23.60;1.00
12053;DHT22;6087;48.982;12.064;2023-06-04T15:22:28;23.50;1.00
12053;DHT22;6087;48.982;12.064;2023-06-04T15:24:56;23.50;1.00
12053;DHT22;6087;48.982;12.064;2023-06-04T15:27:23;23.50;1.00
12053;DHT22;6087;48.982;12.064;2023-06-04T15:29:52;23.50;1.00
12053;DHT22;6087;48.982;12.064;2023-06-04T15:32:19;23.40;1.00
12053;DHT22;6087;48.982;12.064;2023-06-04T15:34:46;23.40;1.00
12053;DHT22;6087;48.982;12.064;2023-06-04T15:37:16;23.40;1.00
12053;DHT22;6087;48.982;12.064;2023-06-04T15:39:49;23.30;1.00
12053;DHT22;6087;48.982;12.064;2023-06-04T15:42:17;23.20;1.00
12053;DHT22;6087;48.982;12.064;2023-06-04T15:44:44;23.20;1.00
12053;DHT22;6087;48.982;12.064;2023-06-04T15:47:11;23.20;1.00
12053;DHT22;6087;48.982;12.064;2023-06-04T15:49:38;23.20;1.00
12053;DHT22;6087;48.982;12.064;2023-06-04T15:52:08;23.10;1.00